sensor_id;sensor_type;location;lat;lon;timestamp;P1;durP1;ratioP1;P2;durP2;ratioP2
10154;SDS011;5118;48.570;7.916;2023-08-07T00:00:51;2.80;;;2.00;;
10154;SDS011;5118;48.570;7.916;2023-08-07T00:03:20;3.00;;;1.90;;
10154;SDS011;5118;48.570;7.916;2023-08-07T00:05:48;2.20;;;1.80;;
10154;SDS011;5118;48.570;7.916;2023-08-07T00:08:18;3.93;;;1.90;;
10154;SDS011;5118;48.570;7.916;2023-08-07T00:10:46;3.67;;;1.80;;
10154;SDS011;5118;48.570;7.916;2023-08-07T00:13:15;2.47;;;1.90;;
10154;SDS011;5118;48.570;7.916;2023-08-07T00:15:45;2.23;;;2.03;;
10154;SDS011;5118;48.570;7.916;2023-08-07T00:18:13;2.33;;;2.00;;
10154;SDS011;5118;48.570;7.916;2023-08-07T00:20:42;3.33;;;1.90;;
10154;SDS011;5118;48.570;7.916;2023-08-07T00:23:10;2.73;;;2.20;;
10154;SDS011;5118;48.570;7.916;2023-08-07T00:25:38;2.20;;;2.00;;
10154;SDS011;5118;48.570;7.916;2023-08-07T00:28:07;2.53;;;2.00;;
10154;SDS011;5118;48.570;7.916;2023-08-07T00:30:35;2.53;;;2.00;;
10154;SDS011;5118;48.570;7.916;2023-08-07T00:33:05;2.77;;;2.10;;
10154;SDS011;5118;48.570;7.916;2023-08-07T00:35:33;3.50;;;2.40;;
10154;SDS011;5118;48.570;7.916;2023-08-07T00:38:02;2.20;;;2.00;;
10154;SDS011;5118;48.570;7.916;2023-08-07T00:40:35;2.50;;;2.23;;
10154;SDS011;5118;48.570;7.916;2023-08-07T00:43:05;4.33;;;2.27;;
10154;SDS011;5118;48.570;7.916;2023-08-07T00:45:35;2.37;;;2.13;;
10154;SDS011;5118;48.570;7.916;2023-08-07T00:48:10;3.87;;;2.20;;
10154;SDS011;5118;48.570;7.916;2023-08-07T00:50:40;2.50;;;2.10;;
10154;SDS011;5118;48.570;7.916;2023-08-07T00:53:13;4.73;;;2.20;;
10154;SDS011;5118;48.570;7.916;2023-08-07T00:55:42;2.50;;;2.30;;
10154;SDS011;5118;48.570;7.916;2023-08-07T00:58:11;3.37;;;2.37;;
10154;SDS011;5118;48.570;7.916;2023-08-07T01:00:40;3.40;;;2.20;;
10154;SDS011;5118;48.570;7.916;2023-08-07T01:03:11;2.63;;;2.10;;
10154;SDS011;5118;48.570;7.916;2023-08-07T01:05:41;2.50;;;2.00;;
10154;SDS011;5118;48.570;7.916;2023-08-07T01:08:09;2.20;;;2.00;;
10154;SDS011;5118;48.570;7.916;2023-08-07T01:10:41;2.70;;;2.10;;
10154;SDS011;5118;48.570;7.916;2023-08-07T01:13:18;3.03;;;1.90;;
10154;SDS011;5118;48.570;7.916;2023-08-07T01:15:54;4.40;;;2.10;;
10154;SDS011;5118;48.570;7.916;2023-08-07T01:18:28;4.00;;;2.27;;
10154;SDS011;5118;48.570;7.916;2023-08-07T01:20:58;4.10;;;2.00;;
10154;SDS011;5118;48.570;7.916;2023-08-07T01:23:28;2.50;;;2.20;;
10154;SDS011;5118;48.570;7.916;2023-08-07T01:25:57;2.57;;;2.20;;
10154;SDS011;5118;48.570;7.916;2023-08-07T01:28:26;5.40;;;2.30;;
10154;SDS011;5118;48.570;7.916;2023-08-07T01:30:58;3.17;;;2.33;;
10154;SDS011;5118;48.570;7.916;2023-08-07T01:33:31;2.13;;;1.93;;
10154;SDS011;5118;48.570;7.916;2023-08-07T01:36:05;2.73;;;1.90;;
10154;SDS011;5118;48.570;7.916;2023-08-07T01:38:36;3.97;;;2.10;;
10154;SDS011;5118;48.570;7.916;2023-08-07T01:41:05;2.33;;;2.00;;
10154;SDS011;5118;48.570;7.916;2023-08-07T01:43:34;3.37;;;2.00;;
10154;SDS011;5118;48.570;7.916;2023-08-07T01:46:02;3.93;;;2.30;;
10154;SDS011;5118;48.570;7.916;2023-08-07T01:48:33;2.30;;;2.10;;
10154;SDS011;5118;48.570;7.916;2023-08-07T01:51:02;4.53;;;2.27;;
10154;SDS011;5118;48.570;7.916;2023-08-07T01:53:30;3.90;;;2.13;;
10154;SDS011;5118;48.570;7.916;2023-08-07T01:56:00;2.33;;;2.13;;
10154;SDS011;5118;48.570;7.916;2023-08-07T01:58:29;3.60;;;2.30;;
10154;SDS011;5118;48.570;7.916;2023-08-07T02:00:58;3.33;;;2.60;;
10154;SDS011;5118;48.570;7.916;2023-08-07T02:03:27;3.63;;;2.10;;
10154;SDS011;5118;48.570;7.916;2023-08-07T02:05:57;3.37;;;2.30;;
10154;SDS011;5118;48.570;7.916;2023-08-07T02:08:25;2.83;;;2.30;;
10154;SDS011;5118;48.570;7.916;2023-08-07T02:10:54;3.40;;;2.23;;
10154;SDS011;5118;48.570;7.916;2023-08-07T02:13:24;3.37;;;2.20;;
10154;SDS011;5118;48.570;7.916;2023-08-07T02:15:53;5.03;;;2.90;;
10154;SDS011;5118;48.570;7.916;2023-08-07T02:18:22;2.50;;;2.30;;
10154;SDS011;5118;48.570;7.916;2023-08-07T02:20:51;3.37;;;2.13;;
10154;SDS011;5118;48.570;7.916;2023-08-07T02:23:19;3.27;;;2.20;;
10154;SDS011;5118;48.570;7.916;2023-08-07T02:25:48;2.20;;;2.10;;
10154;SDS011;5118;48.570;7.916;2023-08-07T02:28:18;2.80;;;2.30;;
10154;SDS011;5118;48.570;7.916;2023-08-07T02:30:48;3.43;;;2.37;;
10154;SDS011;5118;48.570;7.916;2023-08-07T02:33:18;4.10;;;2.30;;
10154;SDS011;5118;48.570;7.916;2023-08-07T02:35:46;3.77;;;2.30;;
10154;SDS011;5118;48.570;7.916;2023-08-07T02:38:17;2.97;;;2.10;;
10154;SDS011;5118;48.570;7.916;2023-08-07T02:40:46;3.57;;;2.20;;
10154;SDS011;5118;48.570;7.916;2023-08-07T02:43:14;4.03;;;2.63;;
10154;SDS011;5118;48.570;7.916;2023-08-07T02:45:42;2.43;;;2.20;;
10154;SDS011;5118;48.570;7.916;2023-08-07T02:48:12;4.27;;;2.30;;
10154;SDS011;5118;48.570;7.916;2023-08-07T02:50:41;4.67;;;2.07;;
10154;SDS011;5118;48.570;7.916;2023-08-07T02:53:09;3.60;;;2.30;;
10154;SDS011;5118;48.570;7.916;2023-08-07T02:55:39;5.27;;;2.63;;
10154;SDS011;5118;48.570;7.916;2023-08-07T02:58:10;3.00;;;2.60;;
10154;SDS011;5118;48.570;7.916;2023-08-07T03:00:39;4.10;;;2.30;;
10154;SDS011;5118;48.570;7.916;2023-08-07T03:03:08;5.63;;;2.80;;
10154;SDS011;5118;48.570;7.916;2023-08-07T03:05:37;3.73;;;2.50;;
10154;SDS011;5118;48.570;7.916;2023-08-07T03:08:06;2.70;;;2.50;;
10154;SDS011;5118;48.570;7.916;2023-08-07T03:10:34;4.30;;;2.63;;
10154;SDS011;5118;48.570;7.916;2023-08-07T03:13:06;6.53;;;2.70;;
10154;SDS011;5118;48.570;7.916;2023-08-07T03:15:34;3.27;;;2.70;;
10154;SDS011;5118;48.570;7.916;2023-08-07T03:18:03;3.37;;;2.87;;
10154;SDS011;5118;48.570;7.916;2023-08-07T03:20:31;2.63;;;2.43;;
10154;SDS011;5118;48.570;7.916;2023-08-07T03:23:01;3.83;;;2.90;;
10154;SDS011;5118;48.570;7.916;2023-08-07T03:25:30;3.97;;;2.83;;
10154;SDS011;5118;48.570;7.916;2023-08-07T03:27:58;5.23;;;2.97;;
10154;SDS011;5118;48.570;7.916;2023-08-07T03:30:27;5.33;;;3.07;;
10154;SDS011;5118;48.570;7.916;2023-08-07T03:32:56;3.90;;;2.97;;
10154;SDS011;5118;48.570;7.916;2023-08-07T03:35:24;7.10;;;2.80;;
10154;SDS011;5118;48.570;7.916;2023-08-07T03:37:53;3.97;;;2.97;;
10154;SDS011;5118;48.570;7.916;2023-08-07T03:40:23;4.10;;;2.90;;
10154;SDS011;5118;48.570;7.916;2023-08-07T03:42:52;3.33;;;2.77;;
10154;SDS011;5118;48.570;7.916;2023-08-07T03:45:20;4.90;;;2.67;;
10154;SDS011;5118;48.570;7.916;2023-08-07T03:47:49;4.90;;;2.77;;
10154;SDS011;5118;48.570;7.916;2023-08-07T03:50:17;3.10;;;2.80;;
10154;SDS011;5118;48.570;7.916;2023-08-07T03:52:46;5.67;;;3.10;;
10154;SDS011;5118;48.570;7.916;2023-08-07T03:55:14;3.30;;;2.63;;
10154;SDS011;5118;48.570;7.916;2023-08-07T03:57:45;4.67;;;2.70;;
10154;SDS011;5118;48.570;7.916;2023-08-07T04:00:14;4.50;;;2.90;;
10154;SDS011;5118;48.570;7.916;2023-08-07T04:02:43;3.60;;;2.80;;
10154;SDS011;5118;48.570;7.916;2023-08-07T04:05:13;4.47;;;2.80;;
10154;SDS011;5118;48.570;7.916;2023-08-07T04:07:41;4.40;;;2.80;;
10154;SDS011;5118;48.570;7.916;2023-08-07T04:10:10;3.73;;;2.93;;
10154;SDS011;5118;48.570;7.916;2023-08-07T04:12:39;3.50;;;2.73;;
10154;SDS011;5118;48.570;7.916;2023-08-07T04:15:09;3.43;;;2.53;;
10154;SDS011;5118;48.570;7.916;2023-08-07T04:17:37;3.87;;;2.97;;
10154;SDS011;5118;48.570;7.916;2023-08-07T04:20:06;4.33;;;2.80;;
10154;SDS011;5118;48.570;7.916;2023-08-07T04:22:37;4.53;;;2.70;;
10154;SDS011;5118;48.570;7.916;2023-08-07T04:25:06;3.30;;;2.73;;
10154;SDS011;5118;48.570;7.916;2023-08-07T04:27:35;4.03;;;3.03;;
10154;SDS011;5118;48.570;7.916;2023-08-07T04:30:05;3.40;;;2.90;;
10154;SDS011;5118;48.570;7.916;2023-08-07T04:32:35;6.60;;;2.80;;
10154;SDS011;5118;48.570;7.916;2023-08-07T04:35:04;5.00;;;3.10;;
10154;SDS011;5118;48.570;7.916;2023-08-07T04:37:33;4.23;;;3.00;;
10154;SDS011;5118;48.570;7.916;2023-08-07T04:40:03;3.33;;;3.03;;
10154;SDS011;5118;48.570;7.916;2023-08-07T04:42:32;4.27;;;2.93;;
10154;SDS011;5118;48.570;7.916;2023-08-07T04:45:01;4.60;;;3.40;;
10154;SDS011;5118;48.570;7.916;2023-08-07T04:47:29;5.80;;;2.90;;
10154;SDS011;5118;48.570;7.916;2023-08-07T04:50:00;6.93;;;2.73;;
10154;SDS011;5118;48.570;7.916;2023-08-07T04:52:28;3.10;;;2.80;;
10154;SDS011;5118;48.570;7.916;2023-08-07T04:54:57;4.00;;;2.80;;
10154;SDS011;5118;48.570;7.916;2023-08-07T04:57:26;5.20;;;3.10;;
10154;SDS011;5118;48.570;7.916;2023-08-07T04:59:54;3.70;;;3.20;;
10154;SDS011;5118;48.570;7.916;2023-08-07T05:02:23;4.57;;;2.83;;
10154;SDS011;5118;48.570;7.916;2023-08-07T05:04:51;3.70;;;2.70;;
10154;SDS011;5118;48.570;7.916;2023-08-07T05:07:22;4.23;;;2.60;;
10154;SDS011;5118;48.570;7.916;2023-08-07T05:09:50;4.03;;;2.67;;
10154;SDS011;5118;48.570;7.916;2023-08-07T05:12:19;2.83;;;2.63;;
10154;SDS011;5118;48.570;7.916;2023-08-07T05:14:47;10.67;;;2.60;;
10154;SDS011;5118;48.570;7.916;2023-08-07T05:17:15;3.83;;;2.60;;
10154;SDS011;5118;48.570;7.916;2023-08-07T05:19:44;2.83;;;2.63;;
10154;SDS011;5118;48.570;7.916;2023-08-07T05:22:12;4.43;;;2.67;;
10154;SDS011;5118;48.570;7.916;2023-08-07T05:24:42;5.40;;;2.80;;
10154;SDS011;5118;48.570;7.916;2023-08-07T05:27:12;4.90;;;2.83;;
10154;SDS011;5118;48.570;7.916;2023-08-07T05:29:40;3.60;;;2.70;;
10154;SDS011;5118;48.570;7.916;2023-08-07T05:32:11;3.20;;;2.90;;
10154;SDS011;5118;48.570;7.916;2023-08-07T05:34:41;3.20;;;2.77;;
10154;SDS011;5118;48.570;7.916;2023-08-07T05:37:09;5.27;;;2.97;;
10154;SDS011;5118;48.570;7.916;2023-08-07T05:39:37;2.97;;;2.50;;
10154;SDS011;5118;48.570;7.916;2023-08-07T05:42:08;3.73;;;2.37;;
10154;SDS011;5118;48.570;7.916;2023-08-07T05:44:37;3.20;;;2.60;;
10154;SDS011;5118;48.570;7.916;2023-08-07T05:47:07;4.73;;;2.50;;
10154;SDS011;5118;48.570;7.916;2023-08-07T05:49:35;2.53;;;2.33;;
10154;SDS011;5118;48.570;7.916;2023-08-07T05:52:04;3.60;;;2.50;;
10154;SDS011;5118;48.570;7.916;2023-08-07T05:54:33;2.97;;;2.30;;
10154;SDS011;5118;48.570;7.916;2023-08-07T05:57:02;3.13;;;2.20;;
10154;SDS011;5118;48.570;7.916;2023-08-07T05:59:33;4.63;;;2.47;;
10154;SDS011;5118;48.570;7.916;2023-08-07T06:02:02;2.30;;;2.10;;
10154;SDS011;5118;48.570;7.916;2023-08-07T06:04:32;3.30;;;2.10;;
10154;SDS011;5118;48.570;7.916;2023-08-07T06:07:01;2.77;;;2.17;;
10154;SDS011;5118;48.570;7.916;2023-08-07T06:09:30;2.57;;;2.13;;
10154;SDS011;5118;48.570;7.916;2023-08-07T06:11:58;3.30;;;2.30;;
10154;SDS011;5118;48.570;7.916;2023-08-07T06:14:27;2.30;;;2.10;;
10154;SDS011;5118;48.570;7.916;2023-08-07T06:16:57;2.67;;;2.20;;
10154;SDS011;5118;48.570;7.916;2023-08-07T06:19:27;2.87;;;2.20;;
10154;SDS011;5118;48.570;7.916;2023-08-07T06:21:58;3.87;;;2.30;;
10154;SDS011;5118;48.570;7.916;2023-08-07T06:24:27;5.23;;;2.30;;
10154;SDS011;5118;48.570;7.916;2023-08-07T06:26:56;2.73;;;2.47;;
10154;SDS011;5118;48.570;7.916;2023-08-07T06:29:24;3.37;;;2.00;;
10154;SDS011;5118;48.570;7.916;2023-08-07T06:31:53;2.93;;;2.23;;
10154;SDS011;5118;48.570;7.916;2023-08-07T06:34:23;2.63;;;2.23;;
10154;SDS011;5118;48.570;7.916;2023-08-07T06:36:52;3.30;;;2.10;;
10154;SDS011;5118;48.570;7.916;2023-08-07T06:39:20;3.07;;;2.17;;
10154;SDS011;5118;48.570;7.916;2023-08-07T06:41:49;3.43;;;2.20;;
10154;SDS011;5118;48.570;7.916;2023-08-07T06:44:23;3.13;;;2.30;;
10154;SDS011;5118;48.570;7.916;2023-08-07T06:46:52;2.67;;;2.10;;
10154;SDS011;5118;48.570;7.916;2023-08-07T06:49:20;3.47;;;2.43;;
10154;SDS011;5118;48.570;7.916;2023-08-07T06:51:51;3.37;;;2.23;;
10154;SDS011;5118;48.570;7.916;2023-08-07T06:54:20;3.13;;;2.33;;
10154;SDS011;5118;48.570;7.916;2023-08-07T06:56:48;2.40;;;2.20;;
10154;SDS011;5118;48.570;7.916;2023-08-07T06:59:17;3.60;;;2.27;;
10154;SDS011;5118;48.570;7.916;2023-08-07T07:01:45;2.70;;;2.30;;
10154;SDS011;5118;48.570;7.916;2023-08-07T07:04:14;4.20;;;2.63;;
10154;SDS011;5118;48.570;7.916;2023-08-07T07:06:43;5.10;;;2.40;;
10154;SDS011;5118;48.570;7.916;2023-08-07T07:09:13;2.50;;;2.30;;
10154;SDS011;5118;48.570;7.916;2023-08-07T07:11:43;2.97;;;2.50;;
10154;SDS011;5118;48.570;7.916;2023-08-07T07:14:11;2.77;;;2.30;;
10154;SDS011;5118;48.570;7.916;2023-08-07T07:16:40;3.67;;;2.43;;
10154;SDS011;5118;48.570;7.916;2023-08-07T07:19:09;4.43;;;2.13;;
10154;SDS011;5118;48.570;7.916;2023-08-07T07:21:38;3.53;;;2.60;;
10154;SDS011;5118;48.570;7.916;2023-08-07T07:24:06;3.95;;;2.38;;
10154;SDS011;5118;48.570;7.916;2023-08-07T07:26:36;2.30;;;2.08;;
10154;SDS011;5118;48.570;7.916;2023-08-07T07:29:05;3.10;;;2.10;;
10154;SDS011;5118;48.570;7.916;2023-08-07T07:31:33;3.17;;;2.00;;
10154;SDS011;5118;48.570;7.916;2023-08-07T07:34:02;3.17;;;2.03;;
10154;SDS011;5118;48.570;7.916;2023-08-07T07:36:31;4.03;;;2.10;;
10154;SDS011;5118;48.570;7.916;2023-08-07T07:38:59;2.63;;;2.22;;
10154;SDS011;5118;48.570;7.916;2023-08-07T07:41:28;4.25;;;2.08;;
10154;SDS011;5118;48.570;7.916;2023-08-07T07:43:58;4.15;;;2.00;;
10154;SDS011;5118;48.570;7.916;2023-08-07T07:46:29;2.75;;;1.80;;
10154;SDS011;5118;48.570;7.916;2023-08-07T07:48:59;2.55;;;1.83;;
10154;SDS011;5118;48.570;7.916;2023-08-07T07:51:30;3.60;;;1.80;;
10154;SDS011;5118;48.570;7.916;2023-08-07T07:53:59;2.60;;;2.03;;
10154;SDS011;5118;48.570;7.916;2023-08-07T07:56:41;3.30;;;1.70;;
10154;SDS011;5118;48.570;7.916;2023-08-07T07:59:11;2.97;;;1.92;;
10154;SDS011;5118;48.570;7.916;2023-08-07T08:01:40;2.03;;;1.70;;
10154;SDS011;5118;48.570;7.916;2023-08-07T08:04:09;3.17;;;1.88;;
10154;SDS011;5118;48.570;7.916;2023-08-07T08:06:39;1.65;;;1.45;;
10154;SDS011;5118;48.570;7.916;2023-08-07T08:09:07;2.28;;;1.63;;
10154;SDS011;5118;48.570;7.916;2023-08-07T08:11:36;2.08;;;1.80;;
10154;SDS011;5118;48.570;7.916;2023-08-07T08:14:05;1.73;;;1.50;;
10154;SDS011;5118;48.570;7.916;2023-08-07T08:16:35;2.75;;;1.80;;
10154;SDS011;5118;48.570;7.916;2023-08-07T08:19:03;2.33;;;1.67;;
10154;SDS011;5118;48.570;7.916;2023-08-07T08:21:34;2.03;;;1.40;;
10154;SDS011;5118;48.570;7.916;2023-08-07T08:24:03;2.42;;;1.70;;
10154;SDS011;5118;48.570;7.916;2023-08-07T08:26:32;1.70;;;1.60;;
10154;SDS011;5118;48.570;7.916;2023-08-07T08:29:05;1.50;;;1.40;;
10154;SDS011;5118;48.570;7.916;2023-08-07T08:31:36;2.53;;;1.80;;
10154;SDS011;5118;48.570;7.916;2023-08-07T08:34:05;1.77;;;1.38;;
10154;SDS011;5118;48.570;7.916;2023-08-07T08:36:34;1.73;;;1.63;;
10154;SDS011;5118;48.570;7.916;2023-08-07T08:39:02;4.38;;;1.63;;
10154;SDS011;5118;48.570;7.916;2023-08-07T08:41:31;2.03;;;1.83;;
10154;SDS011;5118;48.570;7.916;2023-08-07T08:44:00;1.92;;;1.55;;
10154;SDS011;5118;48.570;7.916;2023-08-07T08:46:32;1.80;;;1.70;;
10154;SDS011;5118;48.570;7.916;2023-08-07T08:49:04;1.95;;;1.75;;
10154;SDS011;5118;48.570;7.916;2023-08-07T08:51:33;2.60;;;1.70;;
10154;SDS011;5118;48.570;7.916;2023-08-07T08:54:02;2.00;;;1.80;;
10154;SDS011;5118;48.570;7.916;2023-08-07T08:56:34;2.03;;;1.80;;
10154;SDS011;5118;48.570;7.916;2023-08-07T08:59:04;1.88;;;1.70;;
10154;SDS011;5118;48.570;7.916;2023-08-07T09:01:33;1.90;;;1.55;;
10154;SDS011;5118;48.570;7.916;2023-08-07T09:04:03;2.28;;;1.60;;
10154;SDS011;5118;48.570;7.916;2023-08-07T09:06:32;3.33;;;1.90;;
10154;SDS011;5118;48.570;7.916;2023-08-07T09:09:01;2.47;;;1.80;;
10154;SDS011;5118;48.570;7.916;2023-08-07T09:11:30;3.05;;;1.88;;
10154;SDS011;5118;48.570;7.916;2023-08-07T09:13:59;2.08;;;1.88;;
10154;SDS011;5118;48.570;7.916;2023-08-07T09:16:32;2.00;;;1.52;;
10154;SDS011;5118;48.570;7.916;2023-08-07T09:19:01;3.03;;;1.67;;
10154;SDS011;5118;48.570;7.916;2023-08-07T09:21:32;2.17;;;1.65;;
10154;SDS011;5118;48.570;7.916;2023-08-07T09:24:01;2.08;;;1.60;;
10154;SDS011;5118;48.570;7.916;2023-08-07T09:26:31;2.63;;;2.10;;
10154;SDS011;5118;48.570;7.916;2023-08-07T09:29:01;3.00;;;1.60;;
10154;SDS011;5118;48.570;7.916;2023-08-07T09:31:30;2.22;;;1.80;;
10154;SDS011;5118;48.570;7.916;2023-08-07T09:34:04;2.53;;;1.90;;
10154;SDS011;5118;48.570;7.916;2023-08-07T09:36:33;1.70;;;1.60;;
10154;SDS011;5118;48.570;7.916;2023-08-07T09:39:02;2.10;;;1.73;;
10154;SDS011;5118;48.570;7.916;2023-08-07T09:41:31;1.88;;;1.77;;
10154;SDS011;5118;48.570;7.916;2023-08-07T09:44:05;2.85;;;1.90;;
10154;SDS011;5118;48.570;7.916;2023-08-07T09:46:40;3.20;;;2.00;;
10154;SDS011;5118;48.570;7.916;2023-08-07T09:49:10;2.83;;;1.70;;
10154;SDS011;5118;48.570;7.916;2023-08-07T09:51:42;1.98;;;1.80;;
10154;SDS011;5118;48.570;7.916;2023-08-07T09:54:11;2.13;;;1.90;;
10154;SDS011;5118;48.570;7.916;2023-08-07T09:56:40;2.22;;;1.80;;
10154;SDS011;5118;48.570;7.916;2023-08-07T09:59:09;3.90;;;1.80;;
10154;SDS011;5118;48.570;7.916;2023-08-07T10:01:38;1.95;;;1.77;;
10154;SDS011;5118;48.570;7.916;2023-08-07T10:04:12;2.45;;;1.80;;
10154;SDS011;5118;48.570;7.916;2023-08-07T10:06:43;3.05;;;1.80;;
10154;SDS011;5118;48.570;7.916;2023-08-07T10:09:11;1.70;;;1.60;;
10154;SDS011;5118;48.570;7.916;2023-08-07T10:11:41;2.55;;;1.73;;
10154;SDS011;5118;48.570;7.916;2023-08-07T10:14:09;2.22;;;1.77;;
10154;SDS011;5118;48.570;7.916;2023-08-07T10:16:40;2.17;;;1.70;;
10154;SDS011;5118;48.570;7.916;2023-08-07T10:19:09;2.65;;;1.80;;
10154;SDS011;5118;48.570;7.916;2023-08-07T10:21:39;2.65;;;1.80;;
10154;SDS011;5118;48.570;7.916;2023-08-07T10:24:10;2.08;;;1.60;;
10154;SDS011;5118;48.570;7.916;2023-08-07T10:26:41;2.22;;;1.63;;
10154;SDS011;5118;48.570;7.916;2023-08-07T10:29:13;2.13;;;1.67;;
10154;SDS011;5118;48.570;7.916;2023-08-07T10:31:44;1.95;;;1.80;;
10154;SDS011;5118;48.570;7.916;2023-08-07T10:34:15;2.50;;;1.80;;
10154;SDS011;5118;48.570;7.916;2023-08-07T10:36:46;2.05;;;1.60;;
10154;SDS011;5118;48.570;7.916;2023-08-07T10:39:15;1.70;;;1.60;;
10154;SDS011;5118;48.570;7.916;2023-08-07T10:41:44;3.05;;;1.70;;
10154;SDS011;5118;48.570;7.916;2023-08-07T10:44:17;3.30;;;1.50;;
10154;SDS011;5118;48.570;7.916;2023-08-07T10:46:48;3.33;;;1.73;;
10154;SDS011;5118;48.570;7.916;2023-08-07T10:49:30;1.70;;;1.60;;
10154;SDS011;5118;48.570;7.916;2023-08-07T10:52:06;2.17;;;1.92;;
10154;SDS011;5118;48.570;7.916;2023-08-07T10:54:39;3.00;;;1.80;;
10154;SDS011;5118;48.570;7.916;2023-08-07T10:57:10;2.30;;;1.42;;
10154;SDS011;5118;48.570;7.916;2023-08-07T10:59:48;1.85;;;1.70;;
10154;SDS011;5118;48.570;7.916;2023-08-07T11:02:22;2.17;;;1.98;;
10154;SDS011;5118;48.570;7.916;2023-08-07T11:04:52;1.90;;;1.80;;
10154;SDS011;5118;48.570;7.916;2023-08-07T11:07:26;3.35;;;1.92;;
10154;SDS011;5118;48.570;7.916;2023-08-07T11:09:57;2.10;;;1.80;;
10154;SDS011;5118;48.570;7.916;2023-08-07T11:12:27;2.13;;;1.80;;
10154;SDS011;5118;48.570;7.916;2023-08-07T11:14:56;1.88;;;1.65;;
10154;SDS011;5118;48.570;7.916;2023-08-07T11:17:24;2.28;;;1.45;;
10154;SDS011;5118;48.570;7.916;2023-08-07T11:19:53;1.95;;;1.70;;
10154;SDS011;5118;48.570;7.916;2023-08-07T11:22:22;2.58;;;1.80;;
10154;SDS011;5118;48.570;7.916;2023-08-07T11:24:52;3.95;;;1.70;;
10154;SDS011;5118;48.570;7.916;2023-08-07T11:27:21;2.08;;;1.63;;
10154;SDS011;5118;48.570;7.916;2023-08-07T11:29:50;1.80;;;1.50;;
10154;SDS011;5118;48.570;7.916;2023-08-07T11:32:20;3.60;;;1.70;;
10154;SDS011;5118;48.570;7.916;2023-08-07T11:34:49;2.35;;;1.60;;
10154;SDS011;5118;48.570;7.916;2023-08-07T11:37:18;2.83;;;1.65;;
10154;SDS011;5118;48.570;7.916;2023-08-07T11:39:47;1.50;;;1.40;;
10154;SDS011;5118;48.570;7.916;2023-08-07T11:42:18;1.75;;;1.65;;
10154;SDS011;5118;48.570;7.916;2023-08-07T11:44:50;1.70;;;1.55;;
10154;SDS011;5118;48.570;7.916;2023-08-07T11:47:19;2.05;;;1.85;;
10154;SDS011;5118;48.570;7.916;2023-08-07T11:49:48;2.00;;;1.65;;
10154;SDS011;5118;48.570;7.916;2023-08-07T11:52:19;2.95;;;1.60;;
10154;SDS011;5118;48.570;7.916;2023-08-07T11:54:49;1.90;;;1.80;;
10154;SDS011;5118;48.570;7.916;2023-08-07T11:57:19;1.80;;;1.70;;
10154;SDS011;5118;48.570;7.916;2023-08-07T11:59:49;1.83;;;1.60;;
10154;SDS011;5118;48.570;7.916;2023-08-07T12:02:22;2.25;;;1.58;;
10154;SDS011;5118;48.570;7.916;2023-08-07T12:04:56;1.70;;;1.60;;
10154;SDS011;5118;48.570;7.916;2023-08-07T12:07:26;1.70;;;1.60;;
10154;SDS011;5118;48.570;7.916;2023-08-07T12:10:01;1.50;;;1.40;;
10154;SDS011;5118;48.570;7.916;2023-08-07T12:12:33;2.10;;;1.70;;
10154;SDS011;5118;48.570;7.916;2023-08-07T12:15:04;1.77;;;1.65;;
10154;SDS011;5118;48.570;7.916;2023-08-07T12:17:36;2.10;;;1.90;;
10154;SDS011;5118;48.570;7.916;2023-08-07T12:20:05;2.15;;;1.90;;
10154;SDS011;5118;48.570;7.916;2023-08-07T12:22:38;3.35;;;1.95;;
10154;SDS011;5118;48.570;7.916;2023-08-07T12:25:07;2.80;;;1.80;;
10154;SDS011;5118;48.570;7.916;2023-08-07T12:27:38;2.22;;;1.65;;
10154;SDS011;5118;48.570;7.916;2023-08-07T12:30:07;3.28;;;1.80;;
10154;SDS011;5118;48.570;7.916;2023-08-07T12:32:36;1.73;;;1.63;;
10154;SDS011;5118;48.570;7.916;2023-08-07T12:35:05;1.90;;;1.40;;
10154;SDS011;5118;48.570;7.916;2023-08-07T12:37:38;1.77;;;1.42;;
10154;SDS011;5118;48.570;7.916;2023-08-07T12:40:07;1.90;;;1.70;;
10154;SDS011;5118;48.570;7.916;2023-08-07T12:42:41;2.80;;;1.50;;
10154;SDS011;5118;48.570;7.916;2023-08-07T12:45:09;2.47;;;1.70;;
10154;SDS011;5118;48.570;7.916;2023-08-07T12:47:39;1.75;;;1.48;;
10154;SDS011;5118;48.570;7.916;2023-08-07T12:50:09;2.13;;;1.60;;
10154;SDS011;5118;48.570;7.916;2023-08-07T12:52:38;2.40;;;1.50;;
10154;SDS011;5118;48.570;7.916;2023-08-07T12:55:07;1.90;;;1.27;;
10154;SDS011;5118;48.570;7.916;2023-08-07T12:57:36;2.30;;;1.40;;
10154;SDS011;5118;48.570;7.916;2023-08-07T13:00:10;3.00;;;1.77;;
10154;SDS011;5118;48.570;7.916;2023-08-07T13:02:41;2.00;;;1.60;;
10154;SDS011;5118;48.570;7.916;2023-08-07T13:05:11;1.42;;;1.33;;
10154;SDS011;5118;48.570;7.916;2023-08-07T13:07:40;1.70;;;1.60;;
10154;SDS011;5118;48.570;7.916;2023-08-07T13:10:11;2.30;;;1.35;;
10154;SDS011;5118;48.570;7.916;2023-08-07T13:12:40;1.60;;;1.50;;
10154;SDS011;5118;48.570;7.916;2023-08-07T13:15:12;1.70;;;1.60;;
10154;SDS011;5118;48.570;7.916;2023-08-07T13:17:42;1.77;;;1.40;;
10154;SDS011;5118;48.570;7.916;2023-08-07T13:20:12;1.50;;;1.40;;
10154;SDS011;5118;48.570;7.916;2023-08-07T13:22:41;2.67;;;1.40;;
10154;SDS011;5118;48.570;7.916;2023-08-07T13:25:12;2.03;;;1.63;;
10154;SDS011;5118;48.570;7.916;2023-08-07T13:27:42;2.78;;;1.42;;
10154;SDS011;5118;48.570;7.916;2023-08-07T13:30:11;2.80;;;1.58;;
10154;SDS011;5118;48.570;7.916;2023-08-07T13:32:40;2.55;;;1.50;;
10154;SDS011;5118;48.570;7.916;2023-08-07T13:35:08;3.78;;;1.70;;
10154;SDS011;5118;48.570;7.916;2023-08-07T13:37:39;1.70;;;1.42;;
10154;SDS011;5118;48.570;7.916;2023-08-07T13:40:08;1.50;;;1.40;;
10154;SDS011;5118;48.570;7.916;2023-08-07T13:42:41;2.60;;;1.58;;
10154;SDS011;5118;48.570;7.916;2023-08-07T13:45:12;2.67;;;1.60;;
10154;SDS011;5118;48.570;7.916;2023-08-07T13:47:41;1.63;;;1.40;;
10154;SDS011;5118;48.570;7.916;2023-08-07T13:50:09;2.85;;;1.45;;
10154;SDS011;5118;48.570;7.916;2023-08-07T13:52:39;2.25;;;1.50;;
10154;SDS011;5118;48.570;7.916;2023-08-07T13:55:08;2.03;;;1.40;;
10154;SDS011;5118;48.570;7.916;2023-08-07T13:57:37;1.60;;;1.50;;
10154;SDS011;5118;48.570;7.916;2023-08-07T14:00:06;1.85;;;1.50;;
10154;SDS011;5118;48.570;7.916;2023-08-07T14:02:38;2.00;;;1.50;;
10154;SDS011;5118;48.570;7.916;2023-08-07T14:05:07;2.50;;;1.63;;
10154;SDS011;5118;48.570;7.916;2023-08-07T14:07:38;3.50;;;1.60;;
10154;SDS011;5118;48.570;7.916;2023-08-07T14:10:06;1.50;;;1.40;;
10154;SDS011;5118;48.570;7.916;2023-08-07T14:12:36;4.93;;;1.60;;
10154;SDS011;5118;48.570;7.916;2023-08-07T14:15:04;1.60;;;1.30;;
10154;SDS011;5118;48.570;7.916;2023-08-07T14:17:33;1.60;;;1.50;;
10154;SDS011;5118;48.570;7.916;2023-08-07T14:20:04;1.63;;;1.30;;
10154;SDS011;5118;48.570;7.916;2023-08-07T14:22:33;1.52;;;1.42;;
10154;SDS011;5118;48.570;7.916;2023-08-07T14:25:03;2.10;;;1.60;;
10154;SDS011;5118;48.570;7.916;2023-08-07T14:27:32;1.67;;;1.42;;
10154;SDS011;5118;48.570;7.916;2023-08-07T14:30:01;3.28;;;1.40;;
10154;SDS011;5118;48.570;7.916;2023-08-07T14:32:30;1.98;;;1.58;;
10154;SDS011;5118;48.570;7.916;2023-08-07T14:34:59;1.60;;;1.40;;
10154;SDS011;5118;48.570;7.916;2023-08-07T14:37:29;1.65;;;1.45;;
10154;SDS011;5118;48.570;7.916;2023-08-07T14:39:57;1.35;;;1.25;;
10154;SDS011;5118;48.570;7.916;2023-08-07T14:42:26;2.75;;;1.50;;
10154;SDS011;5118;48.570;7.916;2023-08-07T14:44:54;1.50;;;1.40;;
10154;SDS011;5118;48.570;7.916;2023-08-07T14:47:23;2.53;;;1.40;;
10154;SDS011;5118;48.570;7.916;2023-08-07T14:49:51;1.60;;;1.50;;
10154;SDS011;5118;48.570;7.916;2023-08-07T14:52:20;1.83;;;1.30;;
10154;SDS011;5118;48.570;7.916;2023-08-07T14:54:50;2.63;;;1.30;;
10154;SDS011;5118;48.570;7.916;2023-08-07T14:57:20;1.50;;;1.40;;
10154;SDS011;5118;48.570;7.916;2023-08-07T14:59:49;2.15;;;1.48;;
10154;SDS011;5118;48.570;7.916;2023-08-07T15:02:17;2.35;;;1.40;;
10154;SDS011;5118;48.570;7.916;2023-08-07T15:04:45;3.20;;;1.40;;
10154;SDS011;5118;48.570;7.916;2023-08-07T15:07:14;1.70;;;1.30;;
10154;SDS011;5118;48.570;7.916;2023-08-07T15:09:42;1.52;;;1.40;;
10154;SDS011;5118;48.570;7.916;2023-08-07T15:12:13;1.73;;;1.40;;
10154;SDS011;5118;48.570;7.916;2023-08-07T15:14:41;1.63;;;1.30;;